Time;durP1;ratioP1;P1;durP2;ratioP2;P2;SDS_P1;SDS_P2;PMS_P1;PMS_P2;Temp;Humidity;BMP_temperature;BMP_pressure;BME280_temperature;BME280_humidity;BME280_pressure;Samples;Min_cycle;Max_cycle;Signal;HPM_P1;HPM_P2
2023/09/10 00:01:05;;;;;;;13.53;12.17;;;22.00;99.90;;;;;;5115444;28;20796;-83
2023/09/10 00:03:37;;;;;;;14.40;13.20;;;22.00;99.90;;;;;;5112070;28;20988;-85
2023/09/10 00:06:09;;;;;;;14.40;13.30;;;22.00;99.90;;;;;;5115972;28;20957;-84
2023/09/10 00:08:36;;;;;;;15.57;14.20;;;22.00;99.90;;;;;;5114544;28;21030;-84
2023/09/10 00:11:04;;;;;;;14.43;13.13;;;22.00;99.90;;;;;;5115744;28;20456;-88
2023/09/10 00:13:34;;;;;;;14.27;13.03;;;22.00;99.90;;;;;;5115620;28;20528;-84
2023/09/10 00:16:04;;;;;;;14.70;13.40;;;22.00;99.90;;;;;;5115008;28;20456;-84
2023/09/10 00:18:35;;;;;;;14.13;12.83;;;21.90;99.90;;;;;;5115732;28;20477;-87
2023/09/10 00:21:04;;;;;;;14.00;12.60;;;21.90;99.90;;;;;;5106132;28;20453;-89
2023/09/10 00:23:31;;;;;;;15.00;13.60;;;21.90;99.90;;;;;;5117319;28;20537;-89
2023/09/10 00:26:02;;;;;;;14.20;12.90;;;21.90;99.90;;;;;;5116786;28;20506;-89
2023/09/10 00:28:29;;;;;;;14.50;13.23;;;21.90;99.90;;;;;;5118083;28;20488;-89
2023/09/10 00:31:00;;;;;;;14.43;13.03;;;21.90;99.90;;;;;;5117501;28;20993;-88
2023/09/10 00:36:58;;;;;;;13.07;11.83;;;21.80;99.90;;;;;;5101489;28;20445;-88
2023/09/10 00:42:07;;;;;;;15.37;14.13;;;21.80;99.90;;;;;;5102340;28;20468;-87
2023/09/10 00:44:38;;;;;;;13.53;12.27;;;21.80;99.90;;;;;;5114510;28;20460;-84
2023/09/10 00:47:13;;;;;;;14.50;13.20;;;21.70;99.90;;;;;;5114714;28;20552;-84
2023/09/10 00:49:40;;;;;;;12.33;11.33;;;21.70;99.90;;;;;;5113664;28;20463;-84
2023/09/10 00:55:34;;;;;;;14.43;13.13;;;21.70;99.90;;;;;;5111372;28;20457;-83
2023/09/10 00:58:03;;;;;;;13.97;12.77;;;21.70;99.90;;;;;;5105582;28;20548;-83
2023/09/10 01:00:53;;;;;;;13.10;12.00;;;21.60;99.90;;;;;;5097236;28;20555;-83
2023/09/10 01:03:28;;;;;;;13.83;12.70;;;21.60;99.90;;;;;;5096319;28;20848;-83
2023/09/10 01:05:55;;;;;;;13.90;12.70;;;21.60;99.90;;;;;;5114483;28;20505;-84
2023/09/10 01:08:22;;;;;;;13.17;12.13;;;21.60;99.90;;;;;;5113893;28;20448;-83
2023/09/10 01:10:58;;;;;;;13.00;12.00;;;21.60;99.90;;;;;;5103859;28;20498;-83
2023/09/10 01:13:39;;;;;;;13.77;12.67;;;21.60;99.90;;;;;;5113647;28;20941;-83
2023/09/10 01:16:13;;;;;;;14.37;13.17;;;21.60;99.90;;;;;;5113805;28;20551;-84
2023/09/10 01:18:47;;;;;;;14.57;13.37;;;21.60;99.90;;;;;;5114634;28;20499;-83
2023/09/10 01:21:32;;;;;;;13.80;12.70;;;21.60;99.90;;;;;;5102656;28;20468;-84
2023/09/10 01:24:09;;;;;;;15.27;13.87;;;21.60;99.90;;;;;;5113987;28;20460;-84
2023/09/10 01:26:58;;;;;;;12.73;11.73;;;21.50;99.90;;;;;;5113524;28;20478;-85
2023/09/10 01:29:34;;;;;;;14.40;13.00;;;21.50;99.90;;;;;;5113869;28;20525;-83
2023/09/10 01:32:10;;;;;;;15.57;14.00;;;21.50;99.90;;;;;;5115262;28;20464;-83
2023/09/10 01:34:42;;;;;;;14.47;13.30;;;21.50;99.90;;;;;;5114126;28;20460;-83
2023/09/10 01:37:17;;;;;;;14.13;12.73;;;21.50;99.90;;;;;;5114751;28;21041;-83
2023/09/10 01:39:47;;;;;;;16.87;15.33;;;21.50;99.90;;;;;;5104364;28;20471;-83
2023/09/10 01:42:18;;;;;;;15.40;14.10;;;21.50;99.90;;;;;;5114906;28;21005;-83
2023/09/10 01:44:47;;;;;;;15.70;14.40;;;21.50;99.90;;;;;;5114296;28;20459;-88
2023/09/10 01:47:14;;;;;;;15.80;13.67;;;21.50;99.90;;;;;;5113939;28;20522;-83
2023/09/10 01:49:41;;;;;;;13.97;12.70;;;21.40;99.90;;;;;;5113419;28;20471;-88
2023/09/10 01:52:08;;;;;;;14.43;13.13;;;21.40;99.90;;;;;;5114919;28;20856;-89
2023/09/10 01:54:37;;;;;;;14.00;12.77;;;21.40;99.90;;;;;;5114091;28;20509;-89
2023/09/10 01:57:05;;;;;;;15.57;14.17;;;21.40;99.90;;;;;;5114033;28;20991;-89
2023/09/10 01:59:33;;;;;;;15.30;13.93;;;21.40;99.90;;;;;;5113708;28;20475;-84
2023/09/10 02:02:00;;;;;;;15.67;14.27;;;21.40;99.90;;;;;;5113397;28;20480;-84
2023/09/10 02:04:28;;;;;;;18.20;16.40;;;21.40;99.90;;;;;;5113651;28;20472;-88
2023/09/10 02:06:54;;;;;;;16.23;14.80;;;21.40;99.90;;;;;;5113941;28;20469;-84
2023/09/10 02:09:21;;;;;;;15.60;14.30;;;21.40;99.90;;;;;;5114438;28;20492;-89
2023/09/10 02:11:48;;;;;;;15.43;14.03;;;21.30;99.90;;;;;;5113605;28;20464;-83
2023/09/10 02:14:15;;;;;;;15.23;13.97;;;21.30;99.90;;;;;;5113729;28;20476;-85
2023/09/10 02:16:44;;;;;;;15.40;14.10;;;21.30;99.90;;;;;;5112890;28;20523;-84
2023/09/10 02:19:11;;;;;;;14.80;13.43;;;21.30;99.90;;;;;;5113764;28;20500;-84
2023/09/10 02:21:40;;;;;;;15.83;14.43;;;21.30;99.90;;;;;;5113016;28;20465;-84
2023/09/10 02:24:07;;;;;;;16.10;14.60;;;21.30;99.90;;;;;;5113812;28;20456;-89
2023/09/10 02:26:34;;;;;;;15.70;14.30;;;21.30;99.90;;;;;;5113318;28;20467;-84
2023/09/10 02:32:16;;;;;;;14.80;13.60;;;21.20;99.90;;;;;;5086082;28;20501;-88
2023/09/10 02:34:43;;;;;;;14.73;13.53;;;21.20;99.90;;;;;;5114907;28;20499;-88
2023/09/10 02:37:10;;;;;;;13.33;12.23;;;21.20;99.90;;;;;;5112828;28;20465;-88
2023/09/10 02:39:37;;;;;;;14.27;12.97;;;21.20;99.90;;;;;;5113359;28;20464;-84
2023/09/10 02:42:04;;;;;;;15.70;14.30;;;21.20;99.90;;;;;;5115326;28;21027;-89
2023/09/10 02:44:31;;;;;;;15.23;13.83;;;21.10;99.90;;;;;;5113799;28;20533;-89
2023/09/10 02:47:00;;;;;;;15.10;13.80;;;21.10;99.90;;;;;;5115096;28;20468;-84
2023/09/10 02:49:38;;;;;;;15.77;14.47;;;21.10;99.90;;;;;;5107892;28;20848;-84
2023/09/10 02:52:05;;;;;;;15.27;13.93;;;21.10;99.90;;;;;;5117613;28;20537;-83
2023/09/10 02:54:36;;;;;;;15.53;14.23;;;21.10;99.90;;;;;;5119066;28;20502;-83
2023/09/10 02:57:03;;;;;;;16.37;15.07;;;21.10;99.90;;;;;;5118176;28;20472;-83
2023/09/10 02:59:32;;;;;;;16.70;15.30;;;21.10;99.90;;;;;;5117303;28;20977;-88
2023/09/10 03:01:59;;;;;;;15.43;14.03;;;21.10;99.90;;;;;;5117326;28;21019;-84
2023/09/10 03:04:26;;;;;;;16.87;15.27;;;21.10;99.90;;;;;;5116671;28;20492;-83
2023/09/10 03:06:55;;;;;;;15.50;14.20;;;21.10;99.90;;;;;;5117654;28;20488;-88
2023/09/10 03:09:22;;;;;;;14.63;13.30;;;21.00;99.90;;;;;;5116563;28;20475;-83
2023/09/10 03:11:49;;;;;;;14.67;13.50;;;21.00;99.90;;;;;;5118177;28;20552;-87
2023/09/10 03:14:16;;;;;;;15.43;13.90;;;21.00;99.90;;;;;;5120137;28;20464;-83
2023/09/10 03:16:43;;;;;;;13.23;12.30;;;21.00;99.90;;;;;;5119320;28;20479;-88
2023/09/10 03:19:11;;;;;;;14.90;13.70;;;21.00;99.90;;;;;;5123851;28;20464;-90
2023/09/10 03:21:39;;;;;;;14.57;13.27;;;21.00;99.90;;;;;;5125463;28;20468;-87
2023/09/10 03:24:11;;;;;;;15.90;14.60;;;21.00;99.90;;;;;;5126657;28;20474;-88
2023/09/10 03:26:40;;;;;;;14.43;13.30;;;21.00;99.90;;;;;;5123051;28;20496;-88
2023/09/10 03:29:07;;;;;;;16.00;14.60;;;21.00;99.90;;;;;;5124186;28;20526;-88
2023/09/10 03:31:42;;;;;;;17.23;15.70;;;21.00;99.90;;;;;;5117223;28;20468;-84
2023/09/10 03:34:11;;;;;;;15.70;14.40;;;21.00;99.90;;;;;;5118669;28;20538;-83
2023/09/10 03:39:24;;;;;;;16.40;15.07;;;20.90;99.90;;;;;;5114989;28;20472;-83
2023/09/10 03:41:52;;;;;;;16.87;15.37;;;20.90;99.90;;;;;;5119643;28;20942;-89
2023/09/10 03:44:19;;;;;;;15.40;14.00;;;20.90;99.90;;;;;;5122362;28;20473;-83
2023/09/10 03:46:48;;;;;;;15.33;13.90;;;20.90;99.90;;;;;;5117639;28;20472;-83
2023/09/10 03:49:15;;;;;;;16.20;14.80;;;20.90;99.90;;;;;;5117085;28;20540;-83
2023/09/10 03:51:42;;;;;;;15.30;13.87;;;20.90;99.90;;;;;;5117559;28;20521;-83
2023/09/10 03:54:11;;;;;;;15.63;14.30;;;20.90;99.90;;;;;;5115516;28;20468;-85
2023/09/10 03:56:40;;;;;;;16.80;15.40;;;20.80;99.90;;;;;;5116415;28;20555;-83
2023/09/10 03:59:07;;;;;;;16.17;14.77;;;20.80;99.90;;;;;;5115398;28;20460;-84
2023/09/10 04:01:35;;;;;;;15.57;14.27;;;20.80;99.90;;;;;;5116074;28;20548;-88
2023/09/10 04:04:02;;;;;;;15.73;14.43;;;20.80;99.90;;;;;;5116190;28;20549;-84
2023/09/10 04:06:29;;;;;;;16.23;14.83;;;20.80;99.90;;;;;;5115669;28;20522;-85
2023/09/10 04:08:56;;;;;;;14.80;13.50;;;20.80;99.90;;;;;;5116550;28;20521;-89
2023/09/10 04:11:23;;;;;;;15.70;14.30;;;20.80;99.90;;;;;;5114734;28;20480;-84
2023/09/10 04:13:52;;;;;;;14.30;13.20;;;20.70;99.90;;;;;;5115973;28;20537;-89
2023/09/10 04:16:19;;;;;;;14.73;13.53;;;20.70;99.90;;;;;;5115827;28;20543;-85
2023/09/10 04:18:58;;;;;;;16.03;14.53;;;20.70;99.90;;;;;;5115717;28;20529;-89
2023/09/10 04:21:25;;;;;;;16.07;14.77;;;20.70;99.90;;;;;;5115238;28;20539;-84
2023/09/10 04:23:54;;;;;;;16.40;14.77;;;20.70;99.90;;;;;;5106531;28;20551;-84
2023/09/10 04:26:21;;;;;;;14.80;13.60;;;20.70;99.90;;;;;;5114972;28;20488;-84
2023/09/10 04:28:49;;;;;;;16.47;15.00;;;20.70;99.90;;;;;;5115015;28;20536;-84
2023/09/10 04:31:18;;;;;;;17.10;15.40;;;20.70;99.90;;;;;;5115225;28;20529;-83
2023/09/10 04:33:45;;;;;;;15.03;13.80;;;20.70;99.90;;;;;;5115217;28;20550;-88
2023/09/10 04:36:13;;;;;;;17.60;16.13;;;20.70;99.90;;;;;;5115187;28;20501;-83
2023/09/10 04:38:40;;;;;;;15.07;13.87;;;20.70;99.90;;;;;;5114254;28;20460;-83
2023/09/10 04:41:09;;;;;;;16.87;15.37;;;20.70;99.90;;;;;;5114712;28;20500;-88
2023/09/10 04:43:36;;;;;;;17.67;16.00;;;20.70;99.90;;;;;;5114565;28;20523;-83
2023/09/10 04:46:06;;;;;;;17.87;16.10;;;20.60;99.90;;;;;;5114751;28;20472;-83
2023/09/10 04:48:36;;;;;;;16.67;15.27;;;20.60;99.90;;;;;;5114629;28;20472;-84
2023/09/10 04:51:03;;;;;;;16.40;14.90;;;20.60;99.90;;;;;;5115322;28;20469;-89
2023/09/10 04:53:30;;;;;;;16.20;14.70;;;20.70;99.90;;;;;;5115596;28;20870;-88
2023/09/10 04:55:58;;;;;;;15.50;14.10;;;20.60;99.90;;;;;;5115157;28;20476;-88
2023/09/10 04:58:27;;;;;;;16.17;14.83;;;20.60;99.90;;;;;;5105547;28;20473;-84
2023/09/10 05:00:54;;;;;;;15.43;14.13;;;20.60;99.90;;;;;;5114590;28;20456;-88
2023/09/10 05:03:21;;;;;;;16.73;15.40;;;20.60;99.90;;;;;;5117438;28;20544;-84
2023/09/10 05:05:56;;;;;;;16.50;14.93;;;20.60;99.90;;;;;;5115085;28;20471;-84
2023/09/10 05:08:23;;;;;;;15.70;14.30;;;20.60;99.90;;;;;;5114083;28;20475;-84
2023/09/10 05:10:52;;;;;;;15.87;14.43;;;20.60;99.90;;;;;;5114725;28;20511;-88
2023/09/10 05:13:20;;;;;;;16.40;14.90;;;20.60;99.90;;;;;;5116675;28;20962;-83
2023/09/10 05:15:54;;;;;;;15.97;14.57;;;20.60;99.90;;;;;;5114397;28;20483;-83
2023/09/10 05:18:24;;;;;;;15.27;13.87;;;20.60;99.90;;;;;;5114675;28;20468;-88
2023/09/10 05:20:53;;;;;;;14.30;13.10;;;20.60;99.90;;;;;;5130112;28;20460;-90
2023/09/10 05:23:20;;;;;;;15.50;14.03;;;20.60;99.90;;;;;;5137800;28;20448;-89
2023/09/10 05:25:49;;;;;;;15.80;14.50;;;20.60;99.90;;;;;;5134055;28;20461;-89
2023/09/10 05:28:17;;;;;;;15.43;14.07;;;20.60;99.90;;;;;;5135773;28;20516;-89
2023/09/10 05:30:45;;;;;;;16.00;14.80;;;20.70;99.90;;;;;;5131689;28;20471;-86
2023/09/10 05:33:16;;;;;;;15.30;13.83;;;20.70;99.90;;;;;;5119893;28;20837;-89
2023/09/10 05:35:43;;;;;;;15.30;14.00;;;20.70;99.90;;;;;;5125491;28;20468;-89
2023/09/10 05:38:12;;;;;;;15.10;13.90;;;20.70;99.90;;;;;;5121780;28;20548;-84
2023/09/10 05:40:39;;;;;;;15.37;14.07;;;20.70;99.90;;;;;;5116158;28;20465;-89
2023/09/10 05:43:06;;;;;;;16.00;14.67;;;20.70;99.90;;;;;;5122777;28;20529;-83
2023/09/10 05:45:34;;;;;;;16.10;14.90;;;20.70;99.90;;;;;;5113168;28;20476;-83
2023/09/10 05:48:05;;;;;;;16.30;14.90;;;20.70;99.90;;;;;;5116214;28;20525;-89
2023/09/10 05:50:36;;;;;;;17.33;15.73;;;20.70;99.90;;;;;;5113560;28;20983;-84
2023/09/10 05:53:04;;;;;;;16.50;15.13;;;20.70;99.90;;;;;;5119393;28;20468;-84
2023/09/10 05:55:39;;;;;;;16.47;15.07;;;20.70;99.90;;;;;;5108264;28;20539;-89
2023/09/10 05:58:06;;;;;;;16.07;14.67;;;20.70;99.90;;;;;;5112848;28;20468;-89
2023/09/10 06:00:33;;;;;;;17.00;15.57;;;20.80;99.90;;;;;;5126972;28;20465;-88
2023/09/10 06:03:01;;;;;;;17.03;15.63;;;20.80;99.90;;;;;;5114533;28;20496;-83
2023/09/10 06:05:28;;;;;;;15.40;13.80;;;20.80;99.90;;;;;;5113221;28;20473;-88
2023/09/10 06:08:22;;;;;;;15.87;14.47;;;20.80;99.90;;;;;;5097112;28;20468;-88
2023/09/10 06:10:50;;;;;;;15.97;14.67;;;20.90;99.90;;;;;;5111635;28;20468;-83
2023/09/10 06:13:17;;;;;;;14.53;13.23;;;20.90;99.90;;;;;;5116174;28;20499;-88
2023/09/10 06:15:44;;;;;;;15.00;13.70;;;20.90;99.90;;;;;;5116495;28;20468;-84
2023/09/10 06:18:14;;;;;;;16.80;15.40;;;20.90;99.90;;;;;;5087912;28;20503;-88
2023/09/10 06:20:44;;;;;;;15.10;13.90;;;20.90;99.90;;;;;;5115458;28;20857;-83
2023/09/10 06:23:11;;;;;;;15.00;13.80;;;21.00;99.90;;;;;;5119369;28;20471;-84
2023/09/10 06:25:38;;;;;;;16.03;14.63;;;21.00;99.90;;;;;;5119661;28;20481;-84
2023/09/10 06:28:09;;;;;;;16.00;14.70;;;21.00;99.90;;;;;;5127540;28;20535;-90
2023/09/10 06:30:38;;;;;;;13.47;12.43;;;21.00;99.90;;;;;;5118755;28;20555;-85
2023/09/10 06:33:05;;;;;;;15.37;14.10;;;21.10;99.90;;;;;;5127154;28;20468;-89
2023/09/10 06:35:34;;;;;;;16.27;14.97;;;21.10;99.90;;;;;;5128742;28;20475;-86
2023/09/10 06:38:01;;;;;;;15.70;14.30;;;21.10;99.90;;;;;;5117848;28;20457;-84
2023/09/10 06:40:28;;;;;;;16.93;15.47;;;21.20;99.90;;;;;;5118333;28;20457;-84
2023/09/10 06:42:56;;;;;;;16.37;14.87;;;21.20;99.90;;;;;;5119919;28;20953;-84
2023/09/10 06:45:33;;;;;;;16.90;15.40;;;21.20;99.90;;;;;;5115579;28;20472;-90
2023/09/10 06:48:00;;;;;;;16.53;15.03;;;21.30;99.90;;;;;;5098458;28;20469;-88
2023/09/10 06:50:27;;;;;;;16.47;15.10;;;21.30;99.90;;;;;;5120944;28;20968;-84
2023/09/10 06:52:55;;;;;;;17.10;15.60;;;21.30;99.90;;;;;;5118898;28;20992;-83
2023/09/10 06:55:23;;;;;;;16.40;15.03;;;21.30;99.90;;;;;;5126342;28;20482;-89
2023/09/10 06:57:50;;;;;;;15.40;14.10;;;21.40;99.90;;;;;;5124076;28;20480;-89
2023/09/10 07:00:24;;;;;;;17.00;15.53;;;21.40;99.90;;;;;;5123929;28;20464;-88
2023/09/10 07:02:56;;;;;;;16.57;15.20;;;21.40;99.90;;;;;;5125294;28;20463;-89
2023/09/10 07:05:26;;;;;;;17.53;15.93;;;21.50;99.90;;;;;;5118240;28;21139;-84
2023/09/10 07:07:53;;;;;;;17.07;15.60;;;21.50;99.90;;;;;;5119472;28;20552;-84
2023/09/10 07:10:25;;;;;;;16.80;15.50;;;21.60;99.90;;;;;;5122021;28;20471;-90
2023/09/10 07:12:52;;;;;;;17.93;16.40;;;21.60;99.90;;;;;;5127547;28;20831;-88
2023/09/10 07:15:19;;;;;;;16.57;15.17;;;21.60;99.90;;;;;;5130033;28;20487;-89
2023/09/10 07:17:47;;;;;;;17.70;16.20;;;21.70;99.90;;;;;;5127456;28;20498;-84
2023/09/10 07:20:16;;;;;;;17.73;16.13;;;21.70;99.90;;;;;;5101367;28;20471;-84
2023/09/10 07:22:43;;;;;;;16.53;15.23;;;21.80;99.90;;;;;;5113573;28;20477;-88
2023/09/10 07:25:13;;;;;;;16.87;15.47;;;21.80;99.90;;;;;;5120869;28;20487;-84
2023/09/10 07:27:40;;;;;;;27.57;25.00;;;21.90;99.90;;;;;;5129611;28;20468;-88
2023/09/10 07:30:08;;;;;;;27.60;25.10;;;21.90;99.90;;;;;;5132269;28;20460;-90
2023/09/10 07:32:40;;;;;;;28.83;26.23;;;22.00;99.90;;;;;;5112977;28;20526;-88
2023/09/10 07:35:09;;;;;;;42.17;38.27;;;22.00;99.90;;;;;;5105964;28;20473;-87
2023/09/10 07:37:36;;;;;;;48.67;43.97;;;22.10;99.90;;;;;;5129528;28;20475;-89
2023/09/10 07:40:06;;;;;;;53.03;47.63;;;22.10;99.90;;;;;;5131228;28;20469;-85
2023/09/10 07:42:34;;;;;;;60.53;54.70;;;22.20;99.90;;;;;;5133624;28;20483;-89
2023/09/10 07:45:02;;;;;;;59.53;53.87;;;22.30;99.90;;;;;;5128214;28;20559;-83
2023/09/10 07:47:40;;;;;;;;;;;;;;;;;;;;;
2023/09/10 07:50:11;;;;;;;59.07;53.17;;;22.40;99.90;;;;;;5125328;28;20524;-83
2023/09/10 07:52:47;;;;;;;60.60;54.70;;;22.40;99.90;;;;;;5133620;28;20484;-89
2023/09/10 07:55:15;;;;;;;54.30;49.00;;;22.50;99.90;;;;;;5111083;28;20485;-88
2023/09/10 07:57:48;;;;;;;51.13;46.53;;;22.50;99.90;;;;;;5120964;28;20460;-89
2023/09/10 08:00:16;;;;;;;48.30;43.77;;;22.60;99.90;;;;;;5123621;28;20471;-88
2023/09/10 08:02:43;;;;;;;46.07;41.67;;;22.70;99.90;;;;;;5110657;28;20510;-83
2023/09/10 08:05:15;;;;;;;46.10;42.03;;;22.70;99.90;;;;;;5105997;28;20488;-83
2023/09/10 08:10:39;;;;;;;41.90;37.77;;;22.80;99.90;;;;;;5088537;28;20824;-83
2023/09/10 08:13:15;;;;;;;38.93;35.23;;;22.90;99.90;;;;;;5117327;28;20891;-83
2023/09/10 08:15:46;;;;;;;34.93;31.67;;;23.00;99.90;;;;;;5116770;28;20468;-88
2023/09/10 08:18:14;;;;;;;34.87;31.73;;;23.00;99.90;;;;;;5120340;28;20468;-88
2023/09/10 08:20:45;;;;;;;34.10;30.97;;;23.10;99.90;;;;;;5121708;28;20464;-83
2023/09/10 08:23:12;;;;;;;32.73;29.93;;;23.20;99.90;;;;;;5117822;28;20503;-84
2023/09/10 08:25:40;;;;;;;32.73;29.83;;;23.20;99.90;;;;;;5116471;28;20499;-88
2023/09/10 08:28:09;;;;;;;29.90;27.20;;;23.30;99.90;;;;;;5116531;28;20473;-84
2023/09/10 08:30:36;;;;;;;30.50;27.90;;;23.30;99.90;;;;;;5096424;28;20473;-89
2023/09/10 08:33:04;;;;;;;27.17;24.77;;;23.30;99.90;;;;;;5111173;28;20469;-89
2023/09/10 08:35:46;;;;;;;25.73;23.40;;;23.40;99.90;;;;;;5117658;28;20530;-89
2023/09/10 08:38:41;;;;;;;25.97;23.70;;;23.40;99.90;;;;;;5119228;28;20507;-89
2023/09/10 08:41:20;;;;;;;23.17;21.00;;;23.40;99.90;;;;;;5090705;28;20522;-89
2023/09/10 08:44:24;;;;;;;22.20;20.30;;;23.50;99.90;;;;;;5119569;28;20463;-88
2023/09/10 08:46:53;;;;;;;22.40;20.27;;;23.50;99.90;;;;;;5116985;28;20474;-90
2023/09/10 08:49:27;;;;;;;21.13;19.30;;;23.50;99.90;;;;;;5116580;28;20480;-88
2023/09/10 08:52:15;;;;;;;21.63;19.70;;;23.60;99.90;;;;;;5117093;28;20482;-89
2023/09/10 08:54:52;;;;;;;21.20;19.33;;;23.60;99.90;;;;;;5117851;22;20469;-89
2023/09/10 08:57:27;;;;;;;21.80;19.77;;;23.70;99.90;;;;;;5117130;28;20452;-88
2023/09/10 08:59:57;;;;;;;18.50;16.80;;;23.80;99.90;;;;;;5123096;28;20504;-88
2023/09/10 09:02:37;;;;;;;;;;;;;;;;;;;;;
2023/09/10 09:05:06;;;;;;;16.70;15.20;;;23.80;99.90;;;;;;5098392;28;20549;-88
2023/09/10 09:07:45;;;;;;;18.50;16.60;;;23.80;99.90;;;;;;5104167;28;20461;-84
2023/09/10 09:10:18;;;;;;;18.80;17.20;;;23.90;99.90;;;;;;5097632;28;20473;-87
2023/09/10 09:12:48;;;;;;;17.00;15.30;;;23.90;99.90;;;;;;5096365;28;20539;-89
2023/09/10 09:15:47;;;;;;;17.00;15.60;;;23.90;99.90;;;;;;5100298;28;20458;-88
2023/09/10 09:18:53;;;;;;;14.17;13.07;;;24.00;99.90;;;;;;5089107;28;20524;-89
2023/09/10 09:21:22;;;;;;;13.27;12.17;;;24.00;99.90;;;;;;5092514;28;20541;-89
2023/09/10 09:24:00;;;;;;;13.80;12.67;;;24.10;99.90;;;;;;5095069;28;20757;-84
2023/09/10 09:26:31;;;;;;;12.77;11.73;;;24.10;99.90;;;;;;5094601;28;20492;-84
2023/09/10 09:29:10;;;;;;;12.33;11.17;;;24.20;99.90;;;;;;5096091;28;20450;-84
2023/09/10 09:31:37;;;;;;;11.40;10.50;;;24.20;99.90;;;;;;5096845;28;20491;-84
2023/09/10 09:34:07;;;;;;;12.60;11.50;;;24.20;99.90;;;;;;5097146;28;20549;-88
2023/09/10 09:36:36;;;;;;;11.57;10.60;;;24.30;99.90;;;;;;5098848;28;20523;-89
2023/09/10 09:39:08;;;;;;;11.90;10.70;;;24.30;99.90;;;;;;5098540;28;20457;-87
2023/09/10 09:41:37;;;;;;;11.73;10.73;;;24.40;99.90;;;;;;5099174;28;20491;-88
2023/09/10 09:44:11;;;;;;;10.03;9.23;;;24.50;99.90;;;;;;5098597;28;21025;-83
2023/09/10 09:46:38;;;;;;;12.10;10.90;;;24.50;99.90;;;;;;5097652;28;20465;-89
2023/09/10 09:49:06;;;;;;;10.60;9.70;;;24.50;99.90;;;;;;5097460;28;20457;-89
2023/09/10 09:51:35;;;;;;;10.07;9.27;;;24.60;99.90;;;;;;5096917;28;20469;-84
2023/09/10 09:54:04;;;;;;;9.47;8.77;;;24.60;99.90;;;;;;5093133;28;22526;-84
2023/09/10 09:56:31;;;;;;;10.53;9.60;;;24.60;99.90;;;;;;5084994;28;20481;-84
2023/09/10 09:58:59;;;;;;;9.50;8.70;;;24.70;99.90;;;;;;5094502;28;20548;-84
2023/09/10 10:01:41;;;;;;;11.47;10.57;;;24.70;99.90;;;;;;5094741;28;21064;-83
2023/09/10 10:04:08;;;;;;;10.50;9.60;;;24.80;99.90;;;;;;5092922;28;20528;-82
2023/09/10 10:06:37;;;;;;;11.47;10.57;;;24.80;99.90;;;;;;5097906;28;20473;-90
2023/09/10 10:09:37;;;;;;;10.40;9.47;;;24.90;99.90;;;;;;5083100;28;20466;-88
2023/09/10 10:12:08;;;;;;;10.80;9.90;;;24.90;99.90;;;;;;5074599;28;20518;-85
2023/09/10 10:14:38;;;;;;;11.50;10.50;;;25.00;99.90;;;;;;5085856;28;20485;-88
2023/09/10 10:17:30;;;;;;;12.53;11.43;;;25.00;99.90;;;;;;5086588;28;20480;-89
2023/09/10 10:20:00;;;;;;;11.50;10.50;;;25.00;99.90;;;;;;5089086;28;20683;-89
2023/09/10 10:22:30;;;;;;;11.03;10.17;;;25.00;99.90;;;;;;5103964;28;20985;-83
2023/09/10 10:25:08;;;;;;;13.00;11.67;;;25.00;99.90;;;;;;5103000;28;20488;-88
2023/09/10 10:27:39;;;;;;;12.07;11.07;;;25.10;99.90;;;;;;5103881;28;20552;-83
2023/09/10 10:30:08;;;;;;;10.97;9.97;;;25.20;99.90;;;;;;5096038;28;20831;-89
2023/09/10 10:32:40;;;;;;;10.33;9.43;;;25.20;99.90;;;;;;5105905;28;20529;-90
2023/09/10 10:35:10;;;;;;;11.27;10.27;;;25.20;99.90;;;;;;5098009;28;20503;-89
2023/09/10 10:37:50;;;;;;;9.93;9.10;;;25.30;99.80;;;;;;5091935;28;20461;-89
2023/09/10 10:40:27;;;;;;;10.63;9.77;;;25.40;99.10;;;;;;5100620;28;21000;-89
2023/09/10 10:43:08;;;;;;;9.50;8.73;;;25.40;98.70;;;;;;5086339;28;20465;-83
2023/09/10 10:45:36;;;;;;;9.13;8.33;;;25.50;98.50;;;;;;5095778;28;20545;-84
2023/09/10 10:48:12;;;;;;;10.40;9.60;;;25.50;98.60;;;;;;5096072;28;20491;-89
2023/09/10 10:50:40;;;;;;;9.33;8.63;;;25.60;98.80;;;;;;5095007;28;20763;-84
2023/09/10 10:53:24;;;;;;;9.07;8.30;;;25.60;98.30;;;;;;5098483;28;20469;-90
2023/09/10 10:56:03;;;;;;;8.77;8.07;;;25.60;98.40;;;;;;5103327;28;20487;-89
2023/09/10 10:59:11;;;;;;;9.43;8.60;;;25.60;97.60;;;;;;5090822;28;20489;-89
2023/09/10 11:01:41;;;;;;;9.20;8.50;;;25.70;98.60;;;;;;5085829;28;20522;-84
2023/09/10 11:07:17;;;;;;;10.17;9.33;;;25.70;98.50;;;;;;5097687;28;20454;-83
2023/09/10 11:12:27;;;;;;;9.77;8.87;;;25.70;98.60;;;;;;5104600;28;20500;-90
2023/09/10 11:15:13;;;;;;;8.90;8.10;;;25.80;97.50;;;;;;5105192;28;20481;-89
2023/09/10 11:17:48;;;;;;;7.60;7.00;;;25.80;96.80;;;;;;5100752;28;20484;-84
2023/09/10 11:20:51;;;;;;;10.93;10.03;;;25.90;96.80;;;;;;5097767;28;20446;-84
2023/09/10 11:23:20;;;;;;;10.47;9.40;;;25.90;96.90;;;;;;5099175;28;20819;-84
2023/09/10 11:25:56;;;;;;;9.50;8.50;;;26.00;96.70;;;;;;5098717;28;20476;-83
2023/09/10 11:28:41;;;;;;;8.90;8.10;;;26.00;96.00;;;;;;5090131;28;20556;-84
2023/09/10 11:34:40;;;;;;;8.67;7.87;;;26.10;96.00;;;;;;5102440;28;20611;-84
2023/09/10 11:37:14;;;;;;;8.33;7.73;;;26.20;95.90;;;;;;5092518;28;20458;-88
2023/09/10 11:39:53;;;;;;;8.60;7.90;;;26.20;96.00;;;;;;5094091;27;20455;-89
2023/09/10 11:42:43;;;;;;;9.97;9.13;;;26.20;96.00;;;;;;5104578;28;20928;-84
2023/09/10 11:48:54;;;;;;;7.63;7.03;;;26.30;94.90;;;;;;5016445;28;20484;-84
2023/09/10 11:51:24;;;;;;;8.53;7.83;;;26.40;94.40;;;;;;5069696;28;20466;-89
2023/09/10 11:53:51;;;;;;;7.43;6.83;;;26.40;94.40;;;;;;5099913;28;20494;-90
2023/09/10 11:56:18;;;;;;;7.57;6.97;;;26.40;94.10;;;;;;5097902;28;20501;-89
2023/09/10 11:58:48;;;;;;;8.30;7.43;;;26.50;94.00;;;;;;5087457;28;20500;-88
2023/09/10 12:01:18;;;;;;;7.40;6.80;;;26.50;93.70;;;;;;5098959;28;20507;-84
2023/09/10 12:03:48;;;;;;;7.40;6.80;;;26.60;93.50;;;;;;5097415;28;20484;-84
2023/09/10 12:06:19;;;;;;;7.17;6.67;;;26.60;93.90;;;;;;5088166;28;21027;-85
2023/09/10 12:08:50;;;;;;;7.80;7.07;;;26.60;93.70;;;;;;5097247;28;20470;-84
2023/09/10 12:11:22;;;;;;;7.23;6.67;;;26.60;94.00;;;;;;5098404;28;21020;-84
2023/09/10 12:13:49;;;;;;;8.33;7.73;;;26.60;93.70;;;;;;5087392;28;20467;-89
2023/09/10 12:16:17;;;;;;;6.97;6.47;;;26.70;93.70;;;;;;5100939;28;20921;-84
2023/09/10 12:18:55;;;;;;;7.20;6.60;;;26.70;92.80;;;;;;5101156;28;20476;-89
2023/09/10 12:21:23;;;;;;;8.23;7.60;;;26.70;92.60;;;;;;5101064;28;20477;-89
2023/09/10 12:23:57;;;;;;;7.77;7.07;;;26.70;92.90;;;;;;5073276;28;20481;-89
2023/09/10 12:26:26;;;;;;;6.83;6.30;;;26.70;92.50;;;;;;5100749;28;20554;-85
2023/09/10 12:28:53;;;;;;;7.37;6.77;;;26.70;92.40;;;;;;5088258;28;21010;-89
2023/09/10 12:31:52;;;;;;;8.50;7.80;;;26.80;92.70;;;;;;5087635;28;20462;-85
2023/09/10 12:34:23;;;;;;;7.97;7.33;;;26.80;92.90;;;;;;5064153;28;21050;-84
2023/09/10 12:36:51;;;;;;;7.40;6.90;;;26.80;93.10;;;;;;5088680;28;20473;-88
2023/09/10 12:39:23;;;;;;;8.37;7.57;;;26.80;93.20;;;;;;5097893;28;20528;-90
2023/09/10 12:42:03;;;;;;;6.70;6.20;;;26.80;93.10;;;;;;5097538;28;20483;-89
2023/09/10 12:44:39;;;;;;;7.80;7.10;;;26.80;92.80;;;;;;5102157;28;20474;-89
2023/09/10 12:47:10;;;;;;;8.43;7.83;;;26.80;93.10;;;;;;5098470;28;20459;-89
2023/09/10 12:49:41;;;;;;;8.53;7.87;;;26.80;93.50;;;;;;5089574;28;20468;-89
2023/09/10 12:52:11;;;;;;;9.23;8.50;;;26.80;93.60;;;;;;5086514;28;20845;-83
2023/09/10 12:54:51;;;;;;;8.03;7.20;;;26.70;93.40;;;;;;5085748;28;20535;-83
2023/09/10 12:57:21;;;;;;;8.00;7.20;;;26.70;92.70;;;;;;5090933;28;20983;-84
2023/09/10 13:00:09;;;;;;;8.17;7.03;;;26.70;92.40;;;;;;5097744;28;20476;-83
2023/09/10 13:02:55;;;;;;;7.37;6.77;;;26.80;92.30;;;;;;5099280;28;20887;-84
2023/09/10 13:06:15;;;;;;;7.73;7.13;;;26.80;92.40;;;;;;5102141;28;20476;-89
2023/09/10 13:11:49;;;;;;;8.03;7.30;;;26.80;93.00;;;;;;5107505;28;20465;-88
2023/09/10 13:14:17;;;;;;;7.97;7.27;;;26.70;93.10;;;;;;5111256;27;20555;-90
2023/09/10 13:20:23;;;;;;;7.87;7.17;;;26.80;92.20;;;;;;5065324;28;20451;-90
2023/09/10 13:23:11;;;;;;;6.43;5.93;;;26.80;92.10;;;;;;5098763;28;20546;-85
2023/09/10 13:25:48;;;;;;;6.00;5.60;;;26.80;91.10;;;;;;5103949;27;20455;-84
2023/09/10 13:28:34;;;;;;;7.60;7.00;;;26.90;91.50;;;;;;5102163;28;20820;-90
2023/09/10 13:31:07;;;;;;;7.10;6.40;;;26.90;92.20;;;;;;5098027;28;20467;-89
2023/09/10 13:33:37;;;;;;;7.23;6.67;;;26.80;92.50;;;;;;5097062;28;20512;-89